Time;durP1;ratioP1;P1;durP2;ratioP2;P2;SDS_P1;SDS_P2;PMS_P1;PMS_P2;Temp;Humidity;BMP_temperature;BMP_pressure;BME280_temperature;BME280_humidity;BME280_pressure;Samples;Min_cycle;Max_cycle;Signal;HPM_P1;HPM_P2
2024/04/02 00:01:38;;;;;;;5.30;1.83;;;8.80;99.90;;;;;;5118234;28;20463;-58
2024/04/02 00:04:13;;;;;;;2.90;1.70;;;8.80;1.00;;;;;;5118082;28;20462;-58
2024/04/02 00:06:39;;;;;;;5.17;3.07;;;8.70;1.00;;;;;;5117772;28;20454;-58
2024/04/02 00:09:06;;;;;;;2.83;2.20;;;8.70;99.90;;;;;;5117993;28;20550;-59
2024/04/02 00:11:33;;;;;;;3.60;2.20;;;8.80;1.00;;;;;;5118081;28;20455;-58
2024/04/02 00:14:00;;;;;;;8.63;2.53;;;8.80;99.90;;;;;;5117532;28;20460;-58
2024/04/02 00:16:28;;;;;;;4.67;2.40;;;8.80;1.00;;;;;;5117548;28;20582;-59
2024/04/02 00:18:55;;;;;;;3.17;1.90;;;8.80;99.90;;;;;;5117899;28;20490;-58
2024/04/02 00:21:22;;;;;;;9.30;2.40;;;8.80;99.90;;;;;;5117651;28;20464;-58
2024/04/02 00:23:49;;;;;;;3.67;2.27;;;8.80;99.90;;;;;;5117641;28;20455;-58
2024/04/02 00:26:15;;;;;;;4.07;2.20;;;8.70;46.40;;;;;;5117682;28;20814;-58
2024/04/02 00:28:43;;;;;;;3.40;2.10;;;8.70;99.90;;;;;;5117756;28;20749;-59
2024/04/02 00:31:15;;;;;;;4.43;2.03;;;8.70;99.90;;;;;;5117901;28;20896;-58
2024/04/02 00:33:44;;;;;;;3.60;2.30;;;8.50;99.90;;;;;;5117944;28;20950;-59
2024/04/02 00:36:13;;;;;;;4.67;1.90;;;8.50;99.90;;;;;;5117442;28;20542;-58
2024/04/02 00:38:40;;;;;;;3.40;2.00;;;8.50;99.90;;;;;;5117816;28;20540;-58
2024/04/02 00:41:07;;;;;;;3.53;2.33;;;8.40;99.90;;;;;;5116954;28;20556;-58
2024/04/02 00:43:34;;;;;;;3.37;2.00;;;8.40;1.00;;;;;;5117870;28;20455;-58
2024/04/02 00:46:01;;;;;;;4.80;2.10;;;8.40;1.00;;;;;;5117479;28;20459;-58
2024/04/02 00:48:29;;;;;;;4.80;2.00;;;8.30;99.90;;;;;;5117580;28;20459;-58
2024/04/02 00:50:57;;;;;;;5.57;2.00;;;8.30;99.90;;;;;;5117967;28;20554;-59
2024/04/02 00:53:25;;;;;;;5.60;2.47;;;8.40;99.90;;;;;;5117763;28;20747;-59
2024/04/02 00:55:52;;;;;;;4.53;2.20;;;8.40;99.90;;;;;;5117784;28;20717;-58
2024/04/02 00:58:19;;;;;;;3.73;2.30;;;8.40;99.90;;;;;;5117439;28;20923;-58
2024/04/02 01:00:46;;;;;;;4.10;2.20;;;8.40;99.90;;;;;;5117464;28;20871;-58
2024/04/02 01:03:14;;;;;;;4.10;2.10;;;8.50;99.90;;;;;;5117537;28;20459;-59
2024/04/02 01:05:40;;;;;;;5.63;2.10;;;8.40;99.90;;;;;;5121422;28;20485;-58
2024/04/02 01:08:11;;;;;;;3.17;2.20;;;8.40;99.90;;;;;;5121458;28;20452;-59
2024/04/02 01:10:38;;;;;;;4.37;2.07;;;8.50;99.90;;;;;;5120994;28;20463;-59
2024/04/02 01:13:05;;;;;;;4.70;2.10;;;8.50;99.90;;;;;;5121204;28;20456;-58
2024/04/02 01:15:32;;;;;;;5.47;2.37;;;8.50;99.90;;;;;;5121185;28;20455;-58
2024/04/02 01:17:59;;;;;;;3.53;2.10;;;8.50;99.90;;;;;;5120622;28;21055;-59
2024/04/02 01:20:25;;;;;;;4.93;2.57;;;8.60;99.90;;;;;;5120599;28;20483;-58
2024/04/02 01:22:53;;;;;;;4.57;1.90;;;8.60;99.90;;;;;;5120959;28;20459;-59
2024/04/02 01:25:22;;;;;;;5.03;2.30;;;8.70;99.90;;;;;;5121151;28;20426;-58
2024/04/02 01:27:49;;;;;;;3.33;1.90;;;8.70;99.90;;;;;;5120612;28;20875;-59
2024/04/02 01:30:15;;;;;;;5.40;2.10;;;8.70;99.90;;;;;;5120584;28;20760;-58
2024/04/02 01:32:43;;;;;;;5.83;2.27;;;8.70;99.90;;;;;;5120474;28;20462;-58
2024/04/02 01:35:10;;;;;;;5.83;2.60;;;8.70;99.90;;;;;;5121037;28;20501;-58
2024/04/02 01:37:37;;;;;;;5.03;2.60;;;8.70;99.90;;;;;;5121021;28;20786;-58
2024/04/02 01:40:04;;;;;;;4.80;2.07;;;8.70;99.90;;;;;;5120473;28;20820;-59
2024/04/02 01:42:33;;;;;;;6.77;2.30;;;8.70;92.50;;;;;;5119933;28;20462;-58
2024/04/02 01:44:59;;;;;;;5.33;2.10;;;8.60;93.40;;;;;;5120482;28;20786;-59
2024/04/02 01:47:27;;;;;;;7.03;2.13;;;8.60;72.60;;;;;;5120120;28;20456;-59
2024/04/02 01:49:53;;;;;;;4.03;2.50;;;8.60;80.10;;;;;;5120607;28;20459;-58
2024/04/02 01:52:21;;;;;;;4.13;1.80;;;8.50;97.30;;;;;;5120247;28;20961;-59
2024/04/02 01:54:47;;;;;;;2.60;1.93;;;8.60;99.90;;;;;;5120174;28;20550;-58
2024/04/02 01:57:14;;;;;;;4.47;2.00;;;8.60;99.90;;;;;;5120236;28;20504;-59
2024/04/02 01:59:42;;;;;;;3.97;2.20;;;8.50;99.90;;;;;;5120097;28;20586;-59
2024/04/02 02:02:09;;;;;;;3.47;2.27;;;8.50;99.90;;;;;;5120145;28;20463;-58
2024/04/02 02:04:35;;;;;;;4.50;2.40;;;8.50;99.90;;;;;;5119730;28;20491;-58
2024/04/02 02:07:02;;;;;;;4.33;2.77;;;8.50;99.90;;;;;;5120443;28;20501;-59
2024/04/02 02:09:28;;;;;;;4.10;1.70;;;8.50;99.90;;;;;;5119864;28;20826;-59
2024/04/02 02:11:59;;;;;;;4.40;2.20;;;8.50;99.90;;;;;;5120008;28;20459;-59
2024/04/02 02:14:25;;;;;;;6.93;2.00;;;8.40;99.90;;;;;;5119731;28;20467;-59
2024/04/02 02:16:53;;;;;;;3.60;2.20;;;8.40;99.90;;;;;;5118424;28;20492;-59
2024/04/02 02:19:19;;;;;;;5.90;2.20;;;8.40;99.90;;;;;;5119691;28;20491;-59
2024/04/02 02:21:47;;;;;;;4.50;2.37;;;8.40;99.90;;;;;;5120026;28;20451;-59
2024/04/02 02:24:13;;;;;;;3.60;2.20;;;8.40;99.90;;;;;;5118982;28;20461;-59
2024/04/02 02:26:41;;;;;;;4.67;2.40;;;8.40;99.90;;;;;;5119484;28;20487;-58
2024/04/02 02:29:07;;;;;;;3.97;2.40;;;8.40;99.90;;;;;;5119262;28;20451;-60
2024/04/02 02:31:38;;;;;;;3.33;2.37;;;8.40;99.90;;;;;;5119774;28;20436;-59
2024/04/02 02:34:06;;;;;;;4.67;2.10;;;8.40;99.90;;;;;;5120000;28;20437;-59
2024/04/02 02:36:33;;;;;;;3.63;1.93;;;8.40;99.90;;;;;;5119528;28;20459;-59
2024/04/02 02:38:59;;;;;;;4.27;2.40;;;8.40;99.90;;;;;;5119214;28;20497;-59
2024/04/02 02:41:26;;;;;;;4.90;2.57;;;8.50;99.90;;;;;;5119586;28;20485;-59
2024/04/02 02:43:53;;;;;;;3.87;2.17;;;8.40;99.90;;;;;;5119079;28;20456;-58
2024/04/02 02:46:21;;;;;;;5.80;2.17;;;8.50;99.90;;;;;;5118867;28;20470;-58
2024/04/02 02:48:47;;;;;;;7.30;2.37;;;8.50;99.90;;;;;;5119071;28;20503;-59
2024/04/02 02:51:16;;;;;;;3.70;2.40;;;8.50;99.90;;;;;;5119188;28;20509;-58
2024/04/02 02:53:42;;;;;;;4.20;1.83;;;8.50;99.90;;;;;;5119188;28;20502;-59
2024/04/02 02:56:09;;;;;;;3.13;2.10;;;8.50;99.90;;;;;;5118823;28;20459;-59
2024/04/02 02:58:35;;;;;;;3.27;2.20;;;8.50;99.90;;;;;;5118274;28;20493;-59
2024/04/02 03:01:06;;;;;;;6.70;2.40;;;8.50;99.90;;;;;;5119315;28;20474;-59
2024/04/02 03:03:33;;;;;;;4.13;2.10;;;8.50;99.90;;;;;;5119224;28;20880;-59
2024/04/02 03:06:00;;;;;;;3.97;2.30;;;8.40;99.90;;;;;;5118855;28;20740;-59
2024/04/02 03:08:28;;;;;;;5.37;2.17;;;8.40;99.90;;;;;;5118805;28;20581;-59
2024/04/02 03:10:56;;;;;;;5.30;2.20;;;8.50;99.90;;;;;;5119271;28;20430;-59
2024/04/02 03:13:24;;;;;;;3.87;2.30;;;8.50;99.90;;;;;;5118718;28;20798;-60
2024/04/02 03:15:52;;;;;;;5.43;2.80;;;8.50;99.90;;;;;;5118555;28;20447;-59
2024/04/02 03:18:18;;;;;;;4.73;2.33;;;8.40;99.90;;;;;;5118558;28;20480;-59
2024/04/02 03:20:45;;;;;;;3.70;2.07;;;8.50;99.90;;;;;;5118581;28;20488;-59
2024/04/02 03:23:12;;;;;;;2.93;1.80;;;8.50;99.90;;;;;;5118506;28;20456;-59
2024/04/02 03:25:41;;;;;;;4.10;2.13;;;8.50;99.90;;;;;;5118747;28;20540;-58
2024/04/02 03:28:07;;;;;;;3.80;2.47;;;8.60;99.90;;;;;;5118482;28;20864;-59
2024/04/02 03:30:34;;;;;;;3.00;2.23;;;8.60;99.90;;;;;;5118409;28;20458;-59
2024/04/02 03:33:01;;;;;;;6.53;2.43;;;8.50;99.90;;;;;;5118604;28;20554;-59
2024/04/02 03:35:29;;;;;;;3.80;2.20;;;8.50;99.90;;;;;;5118395;28;20460;-59
2024/04/02 03:37:56;;;;;;;4.90;2.70;;;8.50;99.90;;;;;;5117790;28;20505;-59
2024/04/02 03:40:23;;;;;;;4.33;2.57;;;8.50;99.90;;;;;;5117526;28;20487;-59
2024/04/02 03:42:51;;;;;;;6.20;2.10;;;8.50;99.90;;;;;;5117805;28;20487;-59
2024/04/02 03:45:20;;;;;;;5.00;2.30;;;8.50;99.90;;;;;;5117095;28;20528;-59
2024/04/02 03:47:46;;;;;;;3.17;2.20;;;8.50;99.90;;;;;;5118253;28;20462;-59
2024/04/02 03:50:13;;;;;;;5.93;2.50;;;8.50;99.90;;;;;;5117839;28;20451;-59
2024/04/02 03:52:39;;;;;;;5.63;2.77;;;8.50;99.90;;;;;;5117246;28;20451;-59
2024/04/02 03:55:07;;;;;;;6.57;2.83;;;8.50;99.90;;;;;;5118167;28;20456;-59
2024/04/02 03:57:33;;;;;;;4.43;2.13;;;8.50;99.90;;;;;;5118239;28;20908;-59
2024/04/02 04:00:01;;;;;;;3.50;2.37;;;8.50;99.90;;;;;;5117375;28;20488;-59
2024/04/02 04:02:28;;;;;;;5.90;2.53;;;8.50;99.90;;;;;;5117903;28;20823;-59
2024/04/02 04:04:55;;;;;;;4.40;2.90;;;8.50;99.90;;;;;;5118000;28;20481;-58
2024/04/02 04:07:21;;;;;;;7.33;2.87;;;8.40;99.90;;;;;;5118460;28;20534;-59
2024/04/02 04:09:48;;;;;;;5.27;2.60;;;8.50;99.90;;;;;;5117623;28;20451;-59
2024/04/02 04:12:15;;;;;;;5.27;2.90;;;8.50;99.90;;;;;;5117625;28;20456;-59
2024/04/02 04:14:42;;;;;;;4.97;2.70;;;8.50;99.90;;;;;;5118374;28;20451;-58
2024/04/02 04:17:10;;;;;;;5.10;2.40;;;8.40;99.90;;;;;;5117452;28;20870;-57
2024/04/02 04:19:37;;;;;;;6.30;3.07;;;8.50;99.90;;;;;;5117568;28;20490;-59
2024/04/02 04:22:03;;;;;;;6.93;3.00;;;8.50;99.90;;;;;;5117465;28;20495;-59
2024/04/02 04:24:30;;;;;;;4.40;2.83;;;8.50;99.90;;;;;;5117771;28;20455;-59
2024/04/02 04:26:57;;;;;;;5.67;2.20;;;8.50;99.90;;;;;;5117682;28;20456;-58
2024/04/02 04:29:24;;;;;;;4.03;2.60;;;8.40;99.90;;;;;;5118116;28;20456;-59
2024/04/02 04:31:50;;;;;;;6.00;2.60;;;8.40;99.90;;;;;;5117225;28;20547;-59
2024/04/02 04:34:19;;;;;;;4.57;2.23;;;8.40;99.90;;;;;;5117565;28;20576;-58
2024/04/02 04:36:45;;;;;;;4.90;2.10;;;8.50;99.90;;;;;;5117820;28;20748;-59
2024/04/02 04:39:12;;;;;;;4.10;2.30;;;8.50;99.90;;;;;;5119618;28;20556;-59
2024/04/02 04:41:38;;;;;;;4.40;2.37;;;8.50;99.90;;;;;;5121934;28;20508;-59
2024/04/02 04:44:06;;;;;;;3.70;2.13;;;8.50;99.90;;;;;;5121333;28;20455;-59
2024/04/02 04:46:32;;;;;;;4.13;3.13;;;8.60;99.90;;;;;;5121109;28;20455;-58
2024/04/02 04:48:59;;;;;;;4.43;2.63;;;8.50;99.90;;;;;;5121505;28;20455;-59
2024/04/02 04:51:26;;;;;;;4.27;2.47;;;8.60;99.90;;;;;;5121522;28;20915;-58
2024/04/02 04:53:54;;;;;;;4.20;2.47;;;8.50;99.90;;;;;;5121407;28;20724;-59
2024/04/02 04:56:21;;;;;;;4.90;2.73;;;8.50;99.90;;;;;;5121118;28;20895;-59
2024/04/02 04:58:47;;;;;;;3.90;2.30;;;8.50;99.90;;;;;;5121269;28;20577;-59
2024/04/02 05:01:15;;;;;;;4.63;2.33;;;8.50;99.90;;;;;;5121312;28;20467;-59
2024/04/02 05:03:41;;;;;;;4.60;2.70;;;8.50;99.90;;;;;;5121388;28;20746;-58
2024/04/02 05:06:09;;;;;;;4.60;2.40;;;8.50;99.90;;;;;;5120903;28;20462;-59
2024/04/02 05:08:38;;;;;;;4.07;2.20;;;8.50;99.90;;;;;;5121058;28;20519;-59
2024/04/02 05:11:06;;;;;;;5.90;3.80;;;8.50;99.90;;;;;;5121030;28;20923;-59
2024/04/02 05:13:33;;;;;;;4.00;2.20;;;8.50;99.90;;;;;;5121085;28;20546;-59
2024/04/02 05:16:01;;;;;;;4.00;2.60;;;8.50;99.90;;;;;;5120547;28;20451;-62
2024/04/02 05:18:27;;;;;;;4.70;2.40;;;8.50;99.90;;;;;;5120220;28;20459;-66
2024/04/02 05:20:55;;;;;;;4.10;2.60;;;8.40;99.90;;;;;;5120371;28;20434;-64
2024/04/02 05:23:21;;;;;;;6.40;2.50;;;8.30;1.00;;;;;;5120640;28;20487;-64
2024/04/02 05:25:50;;;;;;;4.70;2.40;;;8.30;1.00;;;;;;5120210;28;20864;-65
2024/04/02 05:28:16;;;;;;;4.87;2.77;;;8.30;1.00;;;;;;5120187;28;20712;-65
2024/04/02 05:30:43;;;;;;;4.30;2.70;;;8.30;1.00;;;;;;5119605;28;20512;-63
2024/04/02 05:33:09;;;;;;;5.50;3.10;;;8.30;56.20;;;;;;5119877;28;20836;-63
2024/04/02 05:35:36;;;;;;;7.63;2.97;;;8.20;63.20;;;;;;5120408;28;20540;-63
2024/04/02 05:38:04;;;;;;;5.10;3.00;;;8.10;99.90;;;;;;5120323;28;20490;-63
2024/04/02 05:40:32;;;;;;;4.10;2.70;;;8.10;99.90;;;;;;5119969;28;20519;-63
2024/04/02 05:43:00;;;;;;;9.23;3.17;;;8.10;99.90;;;;;;5120164;28;20495;-62
2024/04/02 05:45:27;;;;;;;7.73;3.43;;;8.20;99.90;;;;;;5120282;28;20742;-62
2024/04/02 05:47:53;;;;;;;10.03;3.60;;;8.10;99.90;;;;;;5119798;28;20565;-63
2024/04/02 05:50:21;;;;;;;6.40;3.30;;;8.10;99.90;;;;;;5118357;28;20504;-65
2024/04/02 05:52:47;;;;;;;5.60;2.63;;;8.20;99.90;;;;;;5119880;28;20459;-63
2024/04/02 05:55:16;;;;;;;8.33;3.10;;;8.20;99.90;;;;;;5120117;28;20462;-65
2024/04/02 05:57:43;;;;;;;5.83;2.70;;;8.20;1.00;;;;;;5120021;28;20499;-65
2024/04/02 06:00:13;;;;;;;4.10;2.80;;;8.20;1.00;;;;;;5119704;28;20788;-64
2024/04/02 06:02:41;;;;;;;7.03;3.30;;;8.20;1.00;;;;;;5119639;28;20456;-63
2024/04/02 06:05:09;;;;;;;6.03;3.20;;;8.20;1.00;;;;;;5118944;28;20460;-64
2024/04/02 06:07:35;;;;;;;5.23;2.73;;;8.20;1.00;;;;;;5119551;28;20452;-64
2024/04/02 06:10:02;;;;;;;8.30;3.03;;;8.20;1.00;;;;;;5119620;28;20917;-63
2024/04/02 06:12:29;;;;;;;4.70;2.83;;;8.30;1.00;;;;;;5119776;28;20553;-64
2024/04/02 06:14:56;;;;;;;7.23;3.30;;;8.20;1.00;;;;;;5119595;28;20740;-62
2024/04/02 06:17:24;;;;;;;6.20;2.90;;;8.20;1.00;;;;;;5118934;28;20515;-63
2024/04/02 06:19:51;;;;;;;6.27;2.73;;;8.30;1.00;;;;;;5119365;28;20792;-63
2024/04/02 06:22:18;;;;;;;5.50;3.13;;;8.30;1.00;;;;;;5118965;28;20885;-63
2024/04/02 06:24:45;;;;;;;7.23;3.10;;;8.30;1.00;;;;;;5099028;28;20793;-64
2024/04/02 06:27:12;;;;;;;7.20;3.80;;;8.40;1.00;;;;;;5098401;28;20488;-63
2024/04/02 06:29:39;;;;;;;11.03;3.30;;;8.40;1.00;;;;;;5098225;28;20510;-63
2024/04/02 06:32:06;;;;;;;7.37;3.77;;;8.40;99.90;;;;;;5096824;28;20817;-64
2024/04/02 06:34:35;;;;;;;5.83;3.10;;;8.50;99.90;;;;;;5097183;28;20897;-63
2024/04/02 06:37:01;;;;;;;5.03;3.70;;;8.60;99.90;;;;;;5097114;28;20886;-65
2024/04/02 06:39:28;;;;;;;6.30;2.80;;;8.70;99.90;;;;;;5096321;28;20485;-64
2024/04/02 06:41:54;;;;;;;5.17;3.47;;;8.70;99.90;;;;;;5096775;28;20756;-64
2024/04/02 06:44:22;;;;;;;5.83;3.30;;;8.80;99.90;;;;;;5096982;28;20458;-64
2024/04/02 06:46:49;;;;;;;7.30;3.53;;;8.90;99.90;;;;;;5098488;28;21011;-64
2024/04/02 06:49:16;;;;;;;5.40;3.17;;;8.90;74.90;;;;;;5098873;28;20484;-64
2024/04/02 06:51:44;;;;;;;8.37;3.80;;;8.90;39.20;;;;;;5098310;28;20491;-63
2024/04/02 06:54:11;;;;;;;6.73;3.10;;;8.90;46.00;;;;;;5098393;28;20466;-63
2024/04/02 06:56:37;;;;;;;9.80;3.40;;;9.00;1.00;;;;;;5098254;28;20491;-63
2024/04/02 06:59:04;;;;;;;6.73;3.13;;;9.10;1.00;;;;;;5098259;28;20485;-63
2024/04/02 07:01:31;;;;;;;7.67;3.63;;;9.10;1.00;;;;;;5098093;28;20544;-62
2024/04/02 07:03:58;;;;;;;6.93;2.60;;;9.00;1.00;;;;;;5098280;28;20500;-63
2024/04/02 07:06:24;;;;;;;7.00;3.50;;;9.10;1.00;;;;;;5103966;27;20455;-62
2024/04/02 07:08:53;;;;;;;9.10;3.60;;;9.10;1.00;;;;;;5124052;27;20447;-62
2024/04/02 07:11:19;;;;;;;7.73;3.37;;;9.20;1.00;;;;;;5127644;27;20806;-65
2024/04/02 07:13:47;;;;;;;8.60;3.53;;;9.20;1.00;;;;;;5135114;27;20508;-62
2024/04/02 07:16:13;;;;;;;7.33;3.70;;;9.30;1.00;;;;;;5137980;27;20493;-61
2024/04/02 07:18:40;;;;;;;7.07;3.20;;;9.40;1.00;;;;;;5138285;27;20459;-60
2024/04/02 07:21:08;;;;;;;5.53;2.97;;;9.50;1.00;;;;;;5138660;27;20895;-60
2024/04/02 07:23:36;;;;;;;7.60;3.50;;;9.60;1.00;;;;;;5138572;27;20459;-61
2024/04/02 07:26:05;;;;;;;7.37;2.90;;;9.60;1.00;;;;;;5138738;27;20884;-61
2024/04/02 07:28:32;;;;;;;5.80;3.23;;;9.60;99.90;;;;;;5138734;27;20554;-61
2024/04/02 07:31:00;;;;;;;10.13;3.87;;;9.60;99.90;;;;;;5138950;27;20966;-60
2024/04/02 07:33:26;;;;;;;9.70;3.63;;;9.70;1.00;;;;;;5138597;27;20462;-61
2024/04/02 07:35:56;;;;;;;11.17;4.07;;;9.80;99.90;;;;;;5138639;27;20545;-61
2024/04/02 07:38:22;;;;;;;7.30;3.10;;;9.80;99.90;;;;;;5138423;27;20537;-63
2024/04/02 07:40:50;;;;;;;7.67;2.97;;;9.80;99.90;;;;;;5138225;27;20497;-61
2024/04/02 07:43:18;;;;;;;7.50;3.70;;;9.70;99.90;;;;;;5138981;27;20454;-61
2024/04/02 07:45:52;;;;;;;8.50;3.57;;;9.70;99.90;;;;;;5138853;27;20745;-62
2024/04/02 07:48:20;;;;;;;6.83;2.60;;;9.70;99.90;;;;;;5097292;28;20456;-61
2024/04/02 07:50:47;;;;;;;8.90;3.47;;;9.80;99.90;;;;;;5097629;28;20509;-61
2024/04/02 07:53:14;;;;;;;8.07;3.10;;;9.90;99.90;;;;;;5097731;28;20463;-61
2024/04/02 07:55:41;;;;;;;15.53;3.83;;;9.90;15.60;;;;;;5097787;28;20486;-60
2024/04/02 07:58:07;;;;;;;6.93;3.10;;;9.90;1.00;;;;;;5097271;28;20464;-61
2024/04/02 08:00:36;;;;;;;5.90;2.77;;;10.00;22.40;;;;;;5097368;28;20488;-61
2024/04/02 08:03:03;;;;;;;9.33;3.70;;;10.00;13.90;;;;;;5097486;28;20457;-60
2024/04/02 08:05:31;;;;;;;5.97;2.73;;;10.00;8.90;;;;;;5097561;28;20463;-61
2024/04/02 08:07:57;;;;;;;11.00;4.00;;;10.00;12.30;;;;;;5097643;28;20456;-61
2024/04/02 08:10:24;;;;;;;6.90;3.30;;;10.00;1.00;;;;;;5096880;28;20543;-60
2024/04/02 08:12:50;;;;;;;9.80;3.73;;;10.00;1.00;;;;;;5097232;28;20522;-60
2024/04/02 08:15:18;;;;;;;7.17;3.07;;;10.00;1.00;;;;;;5100806;28;20479;-60
2024/04/02 08:17:46;;;;;;;11.87;3.27;;;9.90;1.00;;;;;;5100697;28;20476;-61
2024/04/02 08:20:13;;;;;;;11.47;3.87;;;9.90;1.00;;;;;;5100941;28;20582;-60
2024/04/02 08:22:39;;;;;;;8.10;2.87;;;10.00;1.00;;;;;;5099524;28;20467;-61
2024/04/02 08:25:10;;;;;;;5.77;3.10;;;10.10;1.00;;;;;;5099419;28;20889;-61
2024/04/02 08:27:36;;;;;;;5.43;3.23;;;10.20;1.00;;;;;;5099390;28;20464;-60
2024/04/02 08:30:05;;;;;;;11.07;3.30;;;10.30;1.00;;;;;;5099649;28;20792;-59
2024/04/02 08:32:31;;;;;;;8.23;3.30;;;10.30;1.00;;;;;;5099141;28;20460;-61
2024/04/02 08:35:00;;;;;;;7.40;2.87;;;10.30;1.00;;;;;;5124324;27;20496;-61
2024/04/02 08:37:26;;;;;;;7.53;3.77;;;10.30;1.00;;;;;;5131755;27;20470;-58
2024/04/02 08:39:54;;;;;;;9.40;2.97;;;10.40;1.00;;;;;;5141916;27;21002;-60
2024/04/02 08:42:20;;;;;;;7.03;2.60;;;10.50;1.00;;;;;;5142145;27;20886;-60
2024/04/02 08:44:48;;;;;;;8.80;3.00;;;10.60;1.00;;;;;;5141909;27;20511;-60
2024/04/02 08:47:15;;;;;;;12.50;3.33;;;10.50;1.00;;;;;;5142152;27;20462;-61
2024/04/02 08:49:43;;;;;;;7.90;2.83;;;10.40;1.00;;;;;;5142331;27;20549;-60
2024/04/02 08:52:11;;;;;;;5.80;2.40;;;10.50;1.00;;;;;;5141770;27;20451;-62
2024/04/02 08:54:39;;;;;;;6.60;2.80;;;10.40;1.00;;;;;;5141976;27;20465;-61
2024/04/02 08:57:06;;;;;;;11.87;3.40;;;10.40;1.00;;;;;;5141536;27;20451;-60
2024/04/02 08:59:38;;;;;;;6.23;2.50;;;10.30;1.00;;;;;;5142105;27;20482;-60
2024/04/02 09:02:07;;;;;;;9.43;3.90;;;10.30;1.00;;;;;;5141547;27;20451;-59
2024/04/02 09:04:35;;;;;;;8.37;2.97;;;10.30;1.00;;;;;;5141812;27;20454;-61
2024/04/02 09:07:02;;;;;;;5.60;2.70;;;10.30;1.00;;;;;;5141662;27;20796;-61
2024/04/02 09:09:30;;;;;;;10.00;3.03;;;10.40;1.00;;;;;;5141928;27;20455;-61
2024/04/02 09:11:57;;;;;;;6.07;2.60;;;10.60;1.00;;;;;;5141395;27;20462;-60
2024/04/02 09:14:24;;;;;;;10.43;3.77;;;10.60;1.00;;;;;;5141668;27;20459;-60
2024/04/02 09:16:52;;;;;;;7.77;2.83;;;10.60;1.00;;;;;;5140906;27;20457;-59
2024/04/02 09:19:23;;;;;;;5.97;2.77;;;10.60;1.00;;;;;;5141663;27;20486;-59
2024/04/02 09:21:50;;;;;;;5.87;2.90;;;10.60;1.00;;;;;;5141088;27;20556;-60
2024/04/02 09:24:17;;;;;;;4.83;2.33;;;10.70;1.00;;;;;;5141623;27;20950;-60
2024/04/02 09:26:45;;;;;;;6.40;3.00;;;10.80;99.90;;;;;;5141439;27;20466;-60
2024/04/02 09:29:12;;;;;;;5.40;2.53;;;10.80;99.90;;;;;;5141186;27;20489;-60
2024/04/02 09:31:40;;;;;;;7.70;2.60;;;10.80;99.90;;;;;;5141461;27;20486;-59
2024/04/02 09:34:09;;;;;;;5.67;3.47;;;10.80;99.90;;;;;;5140489;27;20454;-61
2024/04/02 09:36:42;;;;;;;7.87;2.90;;;10.70;99.90;;;;;;5140383;27;20771;-59
2024/04/02 09:39:11;;;;;;;5.93;2.20;;;10.70;99.90;;;;;;5140149;27;20450;-60
2024/04/02 09:41:40;;;;;;;5.60;3.03;;;10.70;99.90;;;;;;5140007;27;20905;-60
2024/04/02 09:44:10;;;;;;;4.80;2.47;;;10.70;99.90;;;;;;5140412;27;20754;-60
2024/04/02 09:46:40;;;;;;;7.30;2.90;;;10.70;99.90;;;;;;5139980;27;20454;-60
2024/04/02 09:49:08;;;;;;;4.70;2.20;;;10.60;99.90;;;;;;5140134;27;20462;-60
2024/04/02 09:51:35;;;;;;;10.37;4.50;;;10.70;99.90;;;;;;5141086;27;20891;-60
2024/04/02 09:54:04;;;;;;;10.97;3.53;;;10.70;99.90;;;;;;5140938;27;20461;-60
2024/04/02 09:56:35;;;;;;;5.40;2.70;;;10.80;99.90;;;;;;5139923;27;20461;-60
2024/04/02 09:59:03;;;;;;;7.70;2.60;;;10.80;99.90;;;;;;5139449;27;20455;-58
2024/04/02 10:01:33;;;;;;;8.00;3.67;;;10.70;99.90;;;;;;5138783;27;20585;-59
2024/04/02 10:04:05;;;;;;;9.93;3.13;;;10.80;99.90;;;;;;5138734;27;20458;-59
2024/04/02 10:06:34;;;;;;;9.30;2.93;;;10.90;99.90;;;;;;5140024;27;20901;-60
2024/04/02 10:09:05;;;;;;;4.53;2.43;;;11.00;99.90;;;;;;5139636;27;20735;-60
2024/04/02 10:11:36;;;;;;;6.00;2.20;;;11.10;99.90;;;;;;5139303;27;20450;-60
2024/04/02 10:14:08;;;;;;;10.03;2.90;;;11.10;99.90;;;;;;5140395;27;20802;-60
2024/04/02 10:16:40;;;;;;;4.67;2.33;;;11.10;99.90;;;;;;5140226;27;20474;-60
2024/04/02 10:19:13;;;;;;;4.30;2.23;;;11.30;1.00;;;;;;5140173;27;20465;-60
2024/04/02 10:21:39;;;;;;;3.77;1.70;;;11.30;99.90;;;;;;5139496;27;20549;-60
2024/04/02 10:24:08;;;;;;;4.67;2.73;;;11.20;99.90;;;;;;5138614;27;20433;-59
2024/04/02 10:26:38;;;;;;;5.43;2.30;;;11.20;99.90;;;;;;5138961;27;20458;-61
2024/04/02 10:29:06;;;;;;;3.13;2.17;;;11.10;99.90;;;;;;5138263;27;20829;-60
2024/04/02 10:31:41;;;;;;;5.70;2.10;;;11.30;99.90;;;;;;5139039;27;20531;-60
2024/04/02 10:34:10;;;;;;;8.10;2.60;;;11.50;99.90;;;;;;5139158;27;20959;-61
2024/04/02 10:36:37;;;;;;;5.43;2.17;;;11.50;99.90;;;;;;5139483;27;20490;-61
2024/04/02 10:39:05;;;;;;;5.80;2.60;;;11.40;99.90;;;;;;5140094;27;20545;-60
2024/04/02 10:41:33;;;;;;;5.27;2.60;;;11.20;99.90;;;;;;5122599;27;20488;-60
2024/04/02 10:44:00;;;;;;;5.70;2.40;;;11.30;99.90;;;;;;5116889;28;20463;-60
2024/04/02 10:46:27;;;;;;;6.50;2.87;;;11.10;99.90;;;;;;5119152;28;20433;-61
2024/04/02 10:48:59;;;;;;;7.57;2.50;;;11.30;99.90;;;;;;5119487;28;20506;-59
2024/04/02 10:51:27;;;;;;;3.83;2.07;;;11.30;99.90;;;;;;5119324;28;20941;-60
2024/04/02 10:53:54;;;;;;;3.40;1.90;;;11.60;99.90;;;;;;5119206;28;20451;-60
2024/04/02 10:56:21;;;;;;;5.13;2.50;;;11.60;99.90;;;;;;5119470;28;20479;-60
2024/04/02 10:58:49;;;;;;;5.40;3.27;;;11.90;99.90;;;;;;5118966;28;20486;-60
2024/04/02 11:01:17;;;;;;;6.20;2.77;;;12.10;99.90;;;;;;5119174;28;20491;-61
2024/04/02 11:03:45;;;;;;;7.40;2.90;;;12.20;99.90;;;;;;5119180;28;20451;-62
2024/04/02 11:06:13;;;;;;;5.13;3.17;;;12.20;99.90;;;;;;5118745;28;20497;-60
2024/04/02 11:08:41;;;;;;;5.43;2.30;;;12.10;99.90;;;;;;5119228;28;20460;-60
2024/04/02 11:11:18;;;;;;;6.93;2.70;;;12.00;99.90;;;;;;5119155;28;20504;-60
2024/04/02 11:13:46;;;;;;;6.13;3.30;;;12.10;99.90;;;;;;5119243;28;20542;-60
2024/04/02 11:16:12;;;;;;;6.00;3.07;;;12.30;99.90;;;;;;5117545;28;20462;-59
2024/04/02 11:18:40;;;;;;;5.40;2.50;;;12.40;99.90;;;;;;5119009;28;20538;-60
2024/04/02 11:21:06;;;;;;;3.97;2.00;;;12.30;99.90;;;;;;5118162;28;20487;-60
2024/04/02 11:26:23;;;;;;;5.40;2.87;;;12.00;99.90;;;;;;5118050;28;20438;-59
2024/04/02 11:28:51;;;;;;;5.30;3.00;;;12.00;99.90;;;;;;5117133;28;20470;-61
2024/04/02 11:31:17;;;;;;;5.43;2.00;;;12.20;99.90;;;;;;5116307;28;20554;-61
2024/04/02 11:33:44;;;;;;;7.30;2.20;;;12.40;99.90;;;;;;5116732;28;20779;-60
2024/04/02 11:36:11;;;;;;;4.30;1.90;;;12.40;99.90;;;;;;5116582;28;20459;-61
2024/04/02 11:38:40;;;;;;;5.13;2.23;;;12.40;99.90;;;;;;5116794;28;20460;-61
2024/04/02 11:41:08;;;;;;;5.50;2.20;;;12.40;99.90;;;;;;5116646;28;20776;-60
2024/04/02 11:43:35;;;;;;;5.30;3.10;;;12.10;99.90;;;;;;5117633;28;20731;-60
2024/04/02 11:46:03;;;;;;;3.90;2.37;;;12.20;99.90;;;;;;5117948;28;20528;-58
2024/04/02 11:48:30;;;;;;;5.00;2.27;;;12.10;99.90;;;;;;5117441;28;20451;-59
2024/04/02 11:50:57;;;;;;;5.00;2.27;;;11.90;99.90;;;;;;5117825;28;20458;-58
2024/04/02 11:53:24;;;;;;;5.67;2.23;;;11.70;1.00;;;;;;5118315;28;20496;-63
2024/04/02 11:55:52;;;;;;;7.33;2.83;;;11.80;99.90;;;;;;5117435;28;20463;-59
2024/04/02 12:01:05;;;;;;;4.93;2.37;;;12.00;1.00;;;;;;5117260;28;20954;-59
2024/04/02 12:03:32;;;;;;;3.40;2.20;;;12.00;99.90;;;;;;5118232;28;20981;-58
2024/04/02 12:06:00;;;;;;;4.90;2.60;;;12.10;99.90;;;;;;5117719;28;20460;-58
2024/04/02 12:08:27;;;;;;;3.67;2.37;;;12.20;1.00;;;;;;5117470;28;20463;-59
2024/04/02 12:10:55;;;;;;;4.83;2.40;;;11.90;1.00;;;;;;5117811;28;20456;-59
2024/04/02 12:13:23;;;;;;;5.03;2.30;;;11.80;1.00;;;;;;5118070;28;20463;-59
2024/04/02 12:15:49;;;;;;;4.97;2.30;;;11.70;1.00;;;;;;5116983;28;20455;-61
2024/04/02 12:18:17;;;;;;;3.37;2.17;;;11.50;1.00;;;;;;5116249;28;20490;-58
2024/04/02 12:20:43;;;;;;;4.13;2.10;;;11.70;1.00;;;;;;5116231;28;20833;-58
2024/04/02 12:23:11;;;;;;;7.07;2.60;;;12.00;1.00;;;;;;5116256;28;20460;-61
2024/04/02 12:25:37;;;;;;;4.43;2.10;;;12.00;1.00;;;;;;5117710;28;20881;-60
2024/04/02 12:28:06;;;;;;;4.43;2.67;;;11.70;1.00;;;;;;5117443;28;20455;-61
2024/04/02 12:30:33;;;;;;;4.80;2.53;;;11.40;1.00;;;;;;5117495;28;20462;-62
2024/04/02 12:33:00;;;;;;;6.60;2.60;;;11.10;69.60;;;;;;5117612;28;20888;-62
2024/04/02 12:35:28;;;;;;;4.20;2.30;;;11.00;78.40;;;;;;5117684;28;20495;-64
2024/04/02 12:37:55;;;;;;;5.83;2.43;;;10.70;82.60;;;;;;5116907;28;20752;-62
2024/04/02 12:40:22;;;;;;;3.60;1.93;;;10.80;99.90;;;;;;5116649;28;20569;-62
2024/04/02 12:42:49;;;;;;;3.20;2.03;;;10.90;99.90;;;;;;5116109;28;20531;-61
2024/04/02 12:45:17;;;;;;;6.37;2.53;;;10.90;99.90;;;;;;5115762;28;20491;-61
2024/04/02 12:47:45;;;;;;;10.00;3.27;;;11.00;5.60;;;;;;5116403;28;20463;-61
2024/04/02 12:50:12;;;;;;;3.87;2.57;;;11.20;47.80;;;;;;5115319;28;20517;-62
2024/04/02 12:52:39;;;;;;;4.80;2.43;;;11.10;35.50;;;;;;5114704;28;20515;-62
2024/04/02 12:55:06;;;;;;;6.77;3.30;;;11.20;99.90;;;;;;5115872;28;20491;-61
2024/04/02 12:57:34;;;;;;;7.93;2.80;;;11.20;99.90;;;;;;5117464;28;20463;-62
2024/04/02 13:00:03;;;;;;;5.23;2.50;;;11.10;99.90;;;;;;5118154;28;20789;-63
2024/04/02 13:02:32;;;;;;;5.90;2.57;;;11.00;99.90;;;;;;5123003;27;20520;-64